EDDS

Stuttgart Airport

Stuttgart, Germany
TAF EDDS 151100Z 1512/1612 VRB03KT 9999 BKN003 TEMPO 1512/1519 SCT004 BECMG 1519/1522 3000 BR TEMPO 1521/1609 0500 FG OVC001
Issued Valid From Valid To
Nov-15 @ 11:00 UTC
(2 hours ago)
Nov-15 @ 12:00 UTC
(43 minutes ago)
Nov-16 @ 12:00 UTC
(in 23 hours)
Nov-15 @ 12:00 to Nov-15 @ 19:00
TAF EDDS 151100Z 1512/1612 VRB03KT 9999 BKN003
Wind Visibility Clouds
Variable at 3 knots 10,000+ meters
  • Broken at 300' AGL
Temporary Nov-15 @ 12:00 to Nov-15 @ 19:00
TEMPO 1512/1519 SCT004
Clouds
  • Scattered at 400' AGL
Becoming Nov-15 @ 19:00 to Nov-16 @ 12:00
BECMG 1519/1522 3000 BR
Wind Visibility Clouds Conditions
Variable at 3 knots 2,993 meters
  • Broken at 300' AGL
  • Mist
Temporary Nov-15 @ 21:00 to Nov-16 @ 09:00
TEMPO 1521/1609 0500 FG OVC001
Visibility Clouds Conditions
499 meters
  • Overcast at 100' AGL
  • Fog
TAF EDDS 151100Z 1512/1612 VRB03KT 9999 BKN003 TEMPO 1512/1519 SCT004 BECMG 1519/1522 3000 BR TEMPO 1521/1609 0500 FG OVC001
Issued Nov-15 @ 11:00 UTC
(2 hours ago)
Valid From Nov-15 @ 12:00 UTC
(43 minutes ago)
Valid To Nov-16 @ 12:00 UTC
(in 23 hours)
Nov-15 @ 12:00 - Nov-15 @ 19:00
Wind Visibility
Variable at 3 knots 10,000+ meters
Clouds
  • Broken at 300' AGL
Temporary Nov-15 @ 12:00 - Nov-15 @ 19:00
Clouds
  • Scattered at 400' AGL
Becoming Nov-15 @ 19:00 - Nov-16 @ 12:00
Wind Visibility
Variable at 3 knots 2,993 meters
Clouds
  • Broken at 300' AGL
Conditions
  • Mist
Temporary Nov-15 @ 21:00 - Nov-16 @ 09:00
Clouds
  • Overcast at 100' AGL
Conditions
  • Fog